Pincourt, Canada
Current Conditions -  °F | °C
As of 3:39 AM on Friday 24 Oct 2014 (Local Time) from CYUL Reporting Station
Light Rain Light Rain  
Wind Chill: 42°   Ceiling: 3700
Heat Index: 46°   Visibility: 15mi
Dew Point: 41°   Wind: 8mph
Humidity: 81%   Direction: 350°N
Pressure: 29.9"   Gusts: NA
Location:  45.37°N, 73.98°W
Report Text: CYUL 240739Z 35007KT 15SM -RA OVC037 08/05 A2990 RMK SC8 SLP126
Loading
Personal Weather Stations






























Interactive Weather Map
Tropical Storm Tracking
New forecast layout! Learn more

10-Day Weather Forecast

Advertisements
Track Severe Weather on mobile